Time;durP1;ratioP1;P1;durP2;ratioP2;P2;SDS_P1;SDS_P2;PMS_P1;PMS_P2;Temp;Humidity;BMP_temperature;BMP_pressure;BME280_temperature;BME280_humidity;BME280_pressure;Samples;Min_cycle;Max_cycle;Signal;HPM_P1;HPM_P2
2022/09/26 00:00:41;;;;;;;;;1.00;0.67;;;;;14.89;56.52;100753.75;5057321;28;45503;-54
2022/09/26 00:03:07;;;;;;;;;5.00;1.67;;;;;14.93;57.12;100757.06;5068888;28;45547;-56
2022/09/26 00:05:33;;;;;;;;;1.00;1.00;;;;;14.86;56.52;100750.44;5074959;28;45687;-56
2022/09/26 00:07:58;;;;;;;;;2.33;1.00;;;;;14.91;57.07;100751.81;5083153;27;45274;-56
2022/09/26 00:10:23;;;;;;;;;1.33;1.33;;;;;14.88;57.08;100745.81;5096314;27;45344;-57
2022/09/26 00:12:49;;;;;;;;;4.00;1.00;;;;;14.87;56.88;100746.78;5096667;27;45778;-56
2022/09/26 00:15:14;;;;;;;;;3.00;1.00;;;;;14.91;56.80;100746.47;5098398;27;45270;-56
2022/09/26 00:17:40;;;;;;;;;3.00;1.00;;;;;14.79;57.37;100730.41;5087043;27;46048;-57
2022/09/26 00:20:05;;;;;;;;;1.00;1.00;;;;;14.83;57.25;100742.59;5080425;27;45361;-57
2022/09/26 00:22:31;;;;;;;;;1.67;1.67;;;;;14.81;57.25;100729.31;5079541;27;45336;-56
2022/09/26 00:24:56;;;;;;;;;1.00;1.00;;;;;14.83;56.93;100731.88;5078564;27;45318;-55
2022/09/26 00:27:22;;;;;;;;;0.00;0.00;;;;;14.75;56.68;100719.94;5080909;27;45439;-57
2022/09/26 00:29:48;;;;;;;;;2.67;1.00;;;;;14.73;56.55;100705.78;5079658;27;45409;-57
2022/09/26 00:32:13;;;;;;;;;1.00;1.00;;;;;14.80;56.66;100718.72;5078748;28;45371;-55
2022/09/26 00:34:39;;;;;;;;;1.33;0.67;;;;;14.79;56.73;100720.56;5079887;27;45357;-56
2022/09/26 00:37:04;;;;;;;;;0.67;0.67;;;;;14.79;57.06;100709.84;5079401;27;45389;-57
2022/09/26 00:39:30;;;;;;;;;0.00;0.00;;;;;14.78;56.31;100705.47;5079380;27;45367;-57
2022/09/26 00:41:55;;;;;;;;;0.33;0.33;;;;;14.60;56.72;100682.69;5093491;27;45347;-54
2022/09/26 00:44:42;;;;;;;;;2.00;2.00;;;;;14.73;56.84;100704.94;5092205;27;45476;-56
2022/09/26 00:47:22;;;;;;;;;1.00;1.00;;;;;14.68;56.52;100696.38;5077459;27;46174;-56
2022/09/26 00:49:52;;;;;;;;;2.00;1.00;;;;;14.71;56.62;100702.38;5077250;27;45497;-56
2022/09/26 00:52:27;;;;;;;;;1.67;1.00;;;;;14.66;56.79;100688.44;5094545;27;45369;-56
2022/09/26 00:54:57;;;;;;;;;1.33;1.33;;;;;14.65;56.57;100685.88;5094722;27;45440;-56
2022/09/26 00:57:34;;;;;;;;;1.00;1.00;;;;;14.70;56.99;100697.97;5074641;27;45484;-56
2022/09/26 01:00:03;;;;;;;;;1.00;1.00;;;;;14.63;56.84;100677.97;5094379;27;45416;-57
2022/09/26 01:02:29;;;;;;;;;1.33;1.33;;;;;14.68;56.86;100686.50;5099551;27;45247;-55
2022/09/26 01:04:56;;;;;;;;;1.33;1.33;;;;;14.70;56.32;100689.94;5099501;27;45387;-55
2022/09/26 01:07:24;;;;;;;;;1.67;1.67;;;;;14.70;56.93;100684.56;5088010;27;46355;-56
2022/09/26 01:09:51;;;;;;;;;1.33;0.00;;;;;14.68;56.60;100681.16;5078630;28;45283;-56
2022/09/26 01:12:19;;;;;;;;;1.00;1.00;;;;;14.66;56.07;100680.41;5077929;27;45416;-56
2022/09/26 01:14:47;;;;;;;;;1.00;1.00;;;;;14.64;56.11;100679.69;5087132;27;45277;-56
2022/09/26 01:17:13;;;;;;;;;0.00;0.00;;;;;14.64;56.07;100686.84;5098998;27;46900;-57
2022/09/26 01:20:06;;;;;;;;;0.67;0.67;;;;;14.58;55.94;100685.44;5083609;27;45518;-57
2022/09/26 01:22:47;;;;;;;;;0.33;0.33;;;;;14.57;56.09;100689.09;5076374;27;45466;-58
2022/09/26 01:25:33;;;;;;;;;0.33;0.33;;;;;14.54;56.11;100689.31;5077712;27;45459;-56
2022/09/26 01:28:26;;;;;;;;;1.00;1.00;;;;;14.51;56.10;100673.50;5077287;28;45369;-57
2022/09/26 01:31:00;;;;;;;;;1.00;1.00;;;;;14.56;55.99;100687.38;5091666;27;45266;-57
2022/09/26 01:33:33;;;;;;;;;2.00;2.00;;;;;14.53;56.09;100676.91;5114330;27;45521;-56
2022/09/26 01:36:37;;;;;;;;;2.00;1.00;;;;;14.56;55.84;100681.19;5099186;27;45483;-56
2022/09/26 01:39:21;;;;;;;;;1.00;1.00;;;;;14.49;56.15;100678.09;5089496;27;45299;-55
2022/09/26 01:41:52;;;;;;;;;1.67;1.00;;;;;14.51;56.07;100676.16;5058362;28;45228;-56
2022/09/26 01:44:24;;;;;;;;;0.33;0.33;;;;;14.52;55.57;100669.00;5073491;28;45436;-56
2022/09/26 01:47:17;;;;;;;;;0.00;0.00;;;;;14.49;55.27;100675.44;5081484;27;47440;-58
2022/09/26 01:49:57;;;;;;;;;1.67;0.00;;;;;14.48;55.27;100663.00;5078073;28;45233;-56
2022/09/26 01:52:33;;;;;;;;;0.33;0.33;;;;;14.44;55.01;100659.66;5078058;27;45483;-55
2022/09/26 01:55:04;;;;;;;;;2.33;1.00;;;;;14.43;55.15;100659.75;5093788;27;45331;-58
2022/09/26 01:57:41;;;;;;;;;1.67;1.00;;;;;14.36;55.24;100647.78;5077086;27;45299;-57
2022/09/26 02:00:11;;;;;;;;;1.00;0.67;;;;;14.39;55.40;100639.53;5077721;27;46102;-57
2022/09/26 02:02:42;;;;;;;;;1.00;1.00;;;;;14.37;55.46;100638.78;5076141;27;45457;-54
2022/09/26 02:05:15;;;;;;;;;1.00;1.00;;;;;14.32;55.39;100630.22;5091311;27;45367;-58
2022/09/26 02:08:03;;;;;;;;;0.00;0.00;;;;;14.31;55.17;100633.88;5078128;28;45893;-56
2022/09/26 02:10:35;;;;;;;;;0.00;0.00;;;;;14.25;55.54;100628.97;5077674;27;46642;-58
2022/09/26 02:13:10;;;;;;;;;1.00;1.00;;;;;14.24;55.58;100622.75;5077926;27;45362;-56
2022/09/26 02:15:36;;;;;;;;;0.33;0.33;;;;;14.23;55.24;100622.88;5092151;27;45464;-56
2022/09/26 02:18:17;;;;;;;;;1.33;0.00;;;;;14.21;56.31;100619.47;5093167;27;45468;-56
2022/09/26 02:20:48;;;;;;;;;1.00;1.00;;;;;14.21;56.50;100611.44;5088009;27;46252;-57
2022/09/26 02:23:14;;;;;;;;;3.00;1.00;;;;;14.21;55.89;100617.63;5113792;27;45412;-56
2022/09/26 02:25:39;;;;;;;;;0.00;0.00;;;;;14.19;56.32;100608.84;5098040;27;45345;-56
2022/09/26 02:28:05;;;;;;;;;0.00;0.00;;;;;14.15;56.30;100596.66;5098123;27;45565;-57
2022/09/26 02:30:30;;;;;;;;;0.33;0.33;;;;;14.13;55.92;100604.78;5086663;27;45420;-57
2022/09/26 02:32:56;;;;;;;;;1.00;1.00;;;;;14.14;55.94;100600.28;5093140;27;45276;-57
2022/09/26 02:38:06;;;;;;;;;1.00;1.00;;;;;14.16;56.61;100579.66;5092345;27;45518;-57
2022/09/26 02:40:50;;;;;;;;;1.33;0.00;;;;;14.17;56.55;100590.22;5077028;27;46294;-56
2022/09/26 02:43:37;;;;;;;;;0.00;0.00;;;;;14.15;56.53;100576.09;5076839;27;45323;-56
2022/09/26 02:46:38;;;;;;;;;0.67;0.67;;;;;14.12;56.76;100568.31;5092800;27;45352;-57
2022/09/26 02:49:28;;;;;;;;;1.00;1.00;;;;;14.12;56.81;100559.44;5092736;27;45587;-55
2022/09/26 02:52:16;;;;;;;;;1.00;1.00;;;;;14.09;57.30;100546.28;5076778;28;45488;-53
2022/09/26 02:55:20;;;;;;;;;0.67;0.67;;;;;14.10;57.00;100540.84;5082272;27;45442;-56
2022/09/26 02:57:48;;;;;;;;;0.67;0.67;;;;;14.07;57.43;100533.03;5113520;27;45474;-55
2022/09/26 03:00:21;;;;;;;;;1.00;1.00;;;;;14.05;57.47;100536.75;5097791;27;45977;-56
2022/09/26 03:02:59;;;;;;;;;2.00;0.00;;;;;14.00;57.26;100533.56;5095937;27;45487;-55
2022/09/26 03:05:28;;;;;;;;;1.00;1.00;;;;;13.98;57.62;100524.81;5091684;27;45276;-55
2022/09/26 03:08:03;;;;;;;;;1.00;1.00;;;;;13.96;57.82;100530.25;5076882;27;45396;-57
2022/09/26 03:10:31;;;;;;;;;1.00;1.00;;;;;13.93;57.71;100517.09;5076764;27;45467;-57
2022/09/26 03:13:05;;;;;;;;;1.00;1.00;;;;;13.92;57.91;100515.38;5104923;27;46148;-55
2022/09/26 03:15:33;;;;;;;;;0.33;0.33;;;;;13.90;57.64;100509.28;5097086;27;45388;-55
2022/09/26 03:18:02;;;;;;;;;0.33;0.33;;;;;13.88;58.15;100501.38;5097535;27;45252;-56
2022/09/26 03:20:28;;;;;;;;;1.00;1.00;;;;;13.90;57.68;100490.59;5086748;27;45311;-57
2022/09/26 03:22:54;;;;;;;;;1.00;1.00;;;;;13.91;58.44;100497.63;5077209;27;45277;-57
2022/09/26 03:25:24;;;;;;;;;1.00;1.00;;;;;13.93;57.93;100485.00;5076423;27;45473;-56
2022/09/26 03:27:51;;;;;;;;;0.67;0.67;;;;;13.88;57.84;100473.81;5076489;27;45403;-54
2022/09/26 03:30:18;;;;;;;;;1.00;1.00;;;;;13.89;58.17;100483.53;5095563;27;45762;-57
2022/09/26 03:32:44;;;;;;;;;1.00;1.00;;;;;13.88;58.18;100484.50;5096549;27;45575;-56
2022/09/26 03:35:09;;;;;;;;;2.00;0.00;;;;;13.88;57.68;100477.34;5089379;27;45557;-57
2022/09/26 03:37:36;;;;;;;;;1.33;1.33;;;;;13.83;58.49;100470.63;5076600;27;45491;-56
2022/09/26 03:40:03;;;;;;;;;1.00;1.00;;;;;13.82;58.66;100471.59;5075931;27;45526;-58
2022/09/26 03:42:29;;;;;;;;;0.00;0.00;;;;;13.85;59.21;100455.31;5076130;27;45586;-55
2022/09/26 03:44:55;;;;;;;;;0.67;0.67;;;;;13.79;58.70;100443.22;5092182;27;45601;-57
2022/09/26 03:47:21;;;;;;;;;0.00;0.00;;;;;13.77;58.79;100441.63;5096996;27;45324;-57
2022/09/26 03:49:46;;;;;;;;;2.67;0.33;;;;;13.80;58.22;100457.44;5096849;27;45601;-57
2022/09/26 03:52:12;;;;;;;;;1.00;1.00;;;;;13.80;58.78;100447.63;5097142;27;45793;-56
2022/09/26 03:54:37;;;;;;;;;1.00;1.00;;;;;13.79;58.75;100448.56;5083859;27;45559;-57
2022/09/26 03:57:03;;;;;;;;;1.00;1.00;;;;;13.69;58.98;100417.28;5076679;27;45428;-58
2022/09/26 03:59:28;;;;;;;;;1.00;1.00;;;;;13.79;58.89;100439.69;5076567;27;45591;-55
2022/09/26 04:01:54;;;;;;;;;1.00;1.00;;;;;13.79;58.31;100431.69;5074257;28;45409;-56
2022/09/26 04:04:22;;;;;;;;;1.00;1.00;;;;;13.79;58.75;100424.50;5088102;27;45495;-57
2022/09/26 04:06:50;;;;;;;;;0.33;0.33;;;;;13.58;59.07;100399.34;5096795;27;45380;-57
2022/09/26 04:09:16;;;;;;;;;1.00;1.00;;;;;13.77;58.90;100425.59;5106976;27;45425;-55
2022/09/26 04:11:42;;;;;;;;;0.33;0.33;;;;;13.76;58.16;100418.53;5076103;28;45262;-56
2022/09/26 04:14:08;;;;;;;;;0.67;0.67;;;;;13.76;58.53;100408.72;5076041;27;45357;-56
2022/09/26 04:16:35;;;;;;;;;0.00;0.00;;;;;13.76;57.72;100408.72;5071580;27;45374;-55
2022/09/26 04:19:01;;;;;;;;;0.00;0.00;;;;;13.62;58.00;100378.59;5076204;27;45346;-56
2022/09/26 04:21:28;;;;;;;;;0.33;0.33;;;;;13.76;58.10;100392.66;5094245;27;47330;-57
2022/09/26 04:23:54;;;;;;;;;0.00;0.00;;;;;13.77;57.41;100391.69;5096545;27;45359;-57
2022/09/26 04:26:24;;;;;;;;;0.00;0.00;;;;;13.75;57.64;100379.44;5078541;27;45458;-60
2022/09/26 04:28:53;;;;;;;;;1.00;1.00;;;;;13.79;57.68;100375.56;5074655;27;45530;-56
2022/09/26 04:31:20;;;;;;;;;1.00;0.00;;;;;13.78;57.75;100369.34;5075251;27;45427;-56
2022/09/26 04:33:46;;;;;;;;;1.00;1.00;;;;;13.79;57.77;100370.22;5075467;27;45279;-56
2022/09/26 04:36:13;;;;;;;;;0.00;0.00;;;;;13.76;57.25;100359.75;5081984;27;45262;-57
2022/09/26 04:38:39;;;;;;;;;3.67;0.00;;;;;13.77;57.55;100362.31;5112105;27;45270;-56
2022/09/26 04:41:22;;;;;;;;;1.33;0.67;;;;;13.73;57.67;100354.63;5095624;27;47172;-57
2022/09/26 04:43:48;;;;;;;;;1.00;1.00;;;;;13.76;57.76;100349.91;5075079;27;45308;-57
2022/09/26 04:46:17;;;;;;;;;0.67;0.67;;;;;13.76;58.11;100339.22;5074036;28;45535;-55
2022/09/26 04:48:42;;;;;;;;;0.67;0.33;;;;;13.74;58.36;100334.97;5075854;27;45337;-56
2022/09/26 04:51:11;;;;;;;;;1.00;0.00;;;;;13.74;58.46;100334.97;5074700;27;45378;-56
2022/09/26 04:53:38;;;;;;;;;0.00;0.00;;;;;13.71;57.78;100337.88;5084585;27;45374;-57
2022/09/26 04:56:04;;;;;;;;;2.00;0.67;;;;;13.69;58.43;100337.13;5111926;27;45348;-57
2022/09/26 04:58:30;;;;;;;;;1.00;1.00;;;;;13.71;58.03;100336.03;5096070;27;45392;-55
2022/09/26 05:01:02;;;;;;;;;1.00;1.00;;;;;13.73;58.14;100323.41;5086805;27;47030;-56
2022/09/26 05:03:28;;;;;;;;;3.00;1.00;;;;;13.75;58.28;100315.28;5094405;27;45313;-60
2022/09/26 05:05:54;;;;;;;;;2.00;1.00;;;;;13.72;58.01;100315.50;5078631;27;45262;-57
2022/09/26 05:08:22;;;;;;;;;1.00;1.00;;;;;13.71;58.21;100308.47;5078953;27;45595;-56
2022/09/26 05:10:53;;;;;;;;;1.00;1.00;;;;;13.73;58.29;100311.88;5077956;28;45407;-56
2022/09/26 05:13:19;;;;;;;;;0.33;0.33;;;;;13.69;58.14;100300.56;5076540;27;45402;-55
2022/09/26 05:15:44;;;;;;;;;1.00;1.00;;;;;13.74;58.28;100297.53;5083650;27;45502;-55
2022/09/26 05:18:10;;;;;;;;;0.00;0.00;;;;;13.70;57.96;100288.06;5095057;27;45285;-56
2022/09/26 05:20:37;;;;;;;;;1.67;1.67;;;;;13.67;58.41;100273.09;5095906;27;45366;-57
2022/09/26 05:23:04;;;;;;;;;3.00;1.00;;;;;13.69;58.49;100278.34;5115060;27;45630;-55
2022/09/26 05:28:24;;;;;;;;;0.00;0.00;;;;;13.62;58.63;100261.03;5082990;27;45402;-56
2022/09/26 05:30:51;;;;;;;;;2.00;1.00;;;;;13.68;58.68;100265.94;5095918;27;45340;-55
2022/09/26 05:33:20;;;;;;;;;1.00;1.00;;;;;13.70;58.47;100258.66;5099617;27;45476;-55
2022/09/26 05:35:53;;;;;;;;;1.33;0.00;;;;;13.57;58.41;100240.84;5093028;27;45283;-57
2022/09/26 05:38:19;;;;;;;;;2.00;2.00;;;;;13.68;59.02;100255.25;5094228;27;45565;-58
2022/09/26 05:40:56;;;;;;;;;0.00;0.00;;;;;13.69;58.30;100257.81;5077530;28;46218;-57
2022/09/26 05:43:23;;;;;;;;;0.00;0.00;;;;;13.70;58.71;100256.00;5081884;27;45361;-56
2022/09/26 05:45:49;;;;;;;;;1.00;1.00;;;;;13.66;58.43;100254.47;5078885;28;45304;-54
2022/09/26 05:48:16;;;;;;;;;2.00;1.00;;;;;13.66;58.23;100255.34;5077819;28;45283;-52
2022/09/26 05:50:42;;;;;;;;;3.33;0.67;;;;;13.71;58.16;100255.00;5073353;27;45584;-55
2022/09/26 05:53:08;;;;;;;;;1.33;1.33;;;;;13.73;58.75;100253.06;5057778;28;45342;-55
2022/09/26 05:55:36;;;;;;;;;1.00;1.00;;;;;13.72;58.98;100248.69;5070114;27;45476;-53
2022/09/26 05:58:01;;;;;;;;;2.00;1.00;;;;;13.75;59.08;100251.13;5100925;27;45637;-54
2022/09/26 06:00:27;;;;;;;;;1.33;1.33;;;;;13.73;58.93;100247.72;5077468;28;45452;-57
2022/09/26 06:03:02;;;;;;;;;0.00;0.00;;;;;13.69;58.77;100247.13;5094985;27;45360;-57
2022/09/26 06:05:29;;;;;;;;;2.00;2.00;;;;;13.68;59.38;100240.06;5077855;27;45426;-55
2022/09/26 06:07:57;;;;;;;;;0.33;0.33;;;;;13.69;58.96;100240.91;5078221;27;45604;-57
2022/09/26 06:10:23;;;;;;;;;0.00;0.00;;;;;13.61;59.43;100245.97;5076664;27;46133;-58
2022/09/26 06:12:48;;;;;;;;;1.00;1.00;;;;;13.58;59.69;100234.53;5087102;27;45361;-59
2022/09/26 06:15:14;;;;;;;;;2.00;2.00;;;;;13.60;59.65;100236.25;5077940;28;45481;-57
2022/09/26 06:17:40;;;;;;;;;1.00;1.00;;;;;13.61;59.42;100236.13;5089771;27;45360;-55
2022/09/26 06:20:06;;;;;;;;;1.00;1.00;;;;;13.60;59.44;100244.25;5097783;27;46020;-54
2022/09/26 06:22:41;;;;;;;;;1.00;1.00;;;;;13.58;59.65;100245.22;5078581;27;45414;-55
2022/09/26 06:25:08;;;;;;;;;0.00;0.00;;;;;13.56;59.82;100236.47;5077150;28;45517;-53
2022/09/26 06:27:37;;;;;;;;;2.33;2.00;;;;;13.55;59.88;100234.78;5084174;27;45775;-53
2022/09/26 06:30:09;;;;;;;;;2.33;1.00;;;;;13.54;59.72;100221.50;5072446;27;45409;-53
2022/09/26 06:32:35;;;;;;;;;1.00;1.00;;;;;13.46;60.03;100239.94;5070823;27;45464;-54
2022/09/26 06:35:02;;;;;;;;;0.67;0.67;;;;;13.42;60.04;100209.94;5078543;27;45671;-56
2022/09/26 06:37:28;;;;;;;;;1.00;1.00;;;;;13.47;60.12;100223.81;5084305;27;45224;-52
2022/09/26 06:39:53;;;;;;;;;1.00;1.00;;;;;13.49;59.64;100216.53;5076757;27;46338;-52
2022/09/26 06:42:18;;;;;;;;;3.00;1.67;;;;;13.51;59.77;100214.56;5077830;27;45392;-55
2022/09/26 06:44:44;;;;;;;;;1.67;1.00;;;;;13.51;59.92;100222.59;5097956;27;45325;-56
2022/09/26 06:47:11;;;;;;;;;3.00;1.33;;;;;13.55;59.67;100213.41;5090530;27;45588;-55
2022/09/26 06:49:37;;;;;;;;;2.00;2.00;;;;;13.55;59.81;100208.06;5082620;27;45453;-55
2022/09/26 06:52:02;;;;;;;;;3.00;1.00;;;;;13.48;59.74;100196.13;5106564;27;45594;-55
2022/09/26 06:54:28;;;;;;;;;2.33;2.00;;;;;13.59;59.36;100203.34;5089096;27;45614;-59
2022/09/26 06:56:54;;;;;;;;;1.00;1.00;;;;;13.54;60.29;100185.00;5073145;27;45416;-54
2022/09/26 06:59:19;;;;;;;;;1.00;1.00;;;;;13.63;59.83;100182.56;5074804;27;47009;-54
2022/09/26 07:01:46;;;;;;;;;1.00;1.00;;;;;13.67;59.75;100184.03;5077070;28;45374;-55
2022/09/26 07:04:14;;;;;;;;;1.67;1.67;;;;;13.85;59.05;100182.66;5075831;28;45493;-52
2022/09/26 07:06:40;;;;;;;;;3.00;2.00;;;;;13.93;59.05;100169.53;5082930;27;45593;-55
2022/09/26 07:09:05;;;;;;;;;3.00;1.33;;;;;13.89;58.16;100146.69;5065710;28;46317;-53
2022/09/26 07:11:31;;;;;;;;;1.00;1.00;;;;;13.96;58.32;100164.00;5089340;27;45395;-61
2022/09/26 07:13:59;;;;;;;;;2.00;1.00;;;;;14.01;58.59;100160.94;5073340;27;45295;-54
2022/09/26 07:16:25;;;;;;;;;1.67;1.67;;;;;13.97;58.49;100148.81;5077733;27;45428;-53
2022/09/26 07:18:51;;;;;;;;;4.00;1.00;;;;;14.01;58.30;100144.91;5089052;27;46651;-58
2022/09/26 07:21:16;;;;;;;;;2.00;1.00;;;;;14.09;58.02;100143.34;5056845;28;45406;-53
2022/09/26 07:23:42;;;;;;;;;0.00;0.00;;;;;14.00;58.14;100113.78;5064583;28;45350;-53
2022/09/26 07:26:07;;;;;;;;;1.67;1.67;;;;;14.13;57.83;100127.91;5076990;27;45385;-55
2022/09/26 07:28:33;;;;;;;;;2.00;2.00;;;;;14.15;57.54;100124.16;5077227;27;45546;-54
2022/09/26 07:31:00;;;;;;;;;1.67;1.00;;;;;14.13;57.74;100117.22;5087869;27;45323;-54
2022/09/26 07:33:25;;;;;;;;;6.00;3.00;;;;;14.16;57.80;100109.78;5079060;27;45307;-54
2022/09/26 07:35:51;;;;;;;;;1.00;1.00;;;;;14.20;57.85;100105.09;5074262;27;45549;-54
2022/09/26 07:38:16;;;;;;;;;4.33;2.67;;;;;14.26;58.17;100111.75;5087643;27;45437;-54
2022/09/26 07:40:42;;;;;;;;;3.00;2.00;;;;;14.21;57.93;100089.88;5072561;27;45488;-50
2022/09/26 07:43:09;;;;;;;;;1.00;1.00;;;;;14.13;58.25;100064.59;5075276;27;45361;-54
2022/09/26 07:51:06;;;;;;;;;2.00;2.00;;;;;14.44;57.62;100094.25;5043734;27;45392;-54
2022/09/26 07:53:31;;;;;;;;;1.00;1.00;;;;;14.44;57.70;100088.91;5076520;27;45407;-51
2022/09/26 07:56:05;;;;;;;;;1.00;1.00;;;;;14.48;57.21;100087.72;5092475;27;45457;-54
2022/09/26 07:58:42;;;;;;;;;1.00;1.00;;;;;14.49;57.74;100091.25;5075364;27;46158;-58
2022/09/26 08:01:10;;;;;;;;;2.00;2.00;;;;;14.51;57.47;100089.28;5074156;27;45460;-49
2022/09/26 08:03:43;;;;;;;;;4.67;2.67;;;;;14.56;57.02;100087.94;5093711;27;45295;-54
2022/09/26 08:06:11;;;;;;;;;2.00;1.00;;;;;14.54;56.96;100073.81;5076098;27;45496;-56
2022/09/26 08:08:36;;;;;;;;;1.00;0.00;;;;;14.60;56.93;100086.72;5091338;27;46169;-56
2022/09/26 08:11:03;;;;;;;;;2.00;2.00;;;;;14.61;56.60;100074.19;5084476;27;45334;-57
2022/09/26 08:13:30;;;;;;;;;1.00;1.00;;;;;14.58;56.83;100069.91;5068456;27;45432;-54
2022/09/26 08:16:04;;;;;;;;;2.00;2.00;;;;;14.66;56.78;100067.47;5073785;27;45568;-56
2022/09/26 08:18:32;;;;;;;;;1.00;1.00;;;;;14.71;56.18;100075.13;5072936;27;45419;-54
2022/09/26 08:20:57;;;;;;;;;1.00;1.00;;;;;14.69;56.17;100059.19;5075405;28;45354;-55
2022/09/26 08:23:22;;;;;;;;;2.00;2.00;;;;;14.75;55.83;100052.50;5063426;27;45223;-56
2022/09/26 08:25:48;;;;;;;;;1.33;1.00;;;;;14.78;55.29;100038.88;5069500;27;45250;-54
2022/09/26 08:28:14;;;;;;;;;0.67;0.67;;;;;14.88;55.43;100049.69;5080913;27;45403;-56
2022/09/26 08:30:40;;;;;;;;;5.00;1.00;;;;;14.95;55.40;100040.16;5068219;28;45536;-60
2022/09/26 08:33:06;;;;;;;;;3.00;1.00;;;;;15.04;55.34;100045.59;5074462;28;45568;-57
2022/09/26 08:35:37;;;;;;;;;1.33;1.33;;;;;15.12;54.87;100044.97;5088094;27;45697;-54
2022/09/26 08:38:04;;;;;;;;;1.00;1.00;;;;;15.14;54.69;100029.63;5092574;27;46240;-55
2022/09/26 08:40:37;;;;;;;;;0.00;0.00;;;;;15.08;54.73;100011.38;5078525;27;45400;-57
2022/09/26 08:43:43;;;;;;;;;1.00;1.00;;;;;15.22;54.50;100021.75;5079644;27;45255;-50
2022/09/26 08:49:51;;;;;;;;;1.00;1.00;;;;;15.38;54.30;100015.13;5073808;27;46165;-55
2022/09/26 08:52:41;;;;;;;;;1.67;0.67;;;;;15.44;54.05;100014.59;5094449;27;45330;-54
2022/09/26 08:55:14;;;;;;;;;1.00;1.00;;;;;15.60;53.64;100013.16;5076017;27;45539;-56
2022/09/26 08:57:53;;;;;;;;;2.00;2.00;;;;;15.68;52.97;100009.84;5106769;27;45558;-53
2022/09/26 09:00:25;;;;;;;;;3.00;2.00;;;;;15.72;53.11;99999.69;5078433;27;46221;-53
2022/09/26 09:03:17;;;;;;;;;3.00;2.00;;;;;15.82;52.88;100003.28;5078619;27;45475;-56
2022/09/26 09:06:03;;;;;;;;;1.00;1.00;;;;;15.96;52.86;99994.03;5091311;27;45456;-56
2022/09/26 09:08:45;;;;;;;;;6.00;4.00;;;;;16.00;52.17;99979.34;5080082;27;45393;-54
2022/09/26 09:11:23;;;;;;;;;1.00;1.00;;;;;16.20;51.93;99986.50;5073761;27;46078;-57
2022/09/26 09:13:54;;;;;;;;;4.00;0.67;;;;;16.26;51.48;99985.94;5090803;27;45268;-56
2022/09/26 09:16:19;;;;;;;;;2.00;2.00;;;;;16.37;50.65;99977.78;5083328;27;45322;-55
2022/09/26 09:18:45;;;;;;;;;3.00;1.67;;;;;16.42;50.66;99969.34;5115723;27;45399;-54
2022/09/26 09:21:24;;;;;;;;;0.33;0.33;;;;;16.42;51.06;99959.44;5080366;27;46136;-56
2022/09/26 09:24:07;;;;;;;;;2.67;2.33;;;;;16.41;50.68;99956.91;5073913;28;45872;-47
2022/09/26 09:26:44;;;;;;;;;1.00;1.00;;;;;16.49;50.39;99949.84;5074322;28;46993;-46
2022/09/26 09:29:31;;;;;;;;;3.67;2.00;;;;;16.54;50.65;99941.38;5078002;28;45541;-48
2022/09/26 09:32:00;;;;;;;;;2.00;0.00;;;;;16.49;50.18;99939.09;5082164;27;46233;-56
2022/09/26 09:34:30;;;;;;;;;2.00;2.00;;;;;16.44;50.09;99909.16;5090132;27;45421;-56
2022/09/26 09:37:06;;;;;;;;;1.00;1.00;;;;;16.51;50.48;99909.44;5077433;27;45556;-57
2022/09/26 09:39:36;;;;;;;;;2.00;1.00;;;;;16.53;49.78;99907.44;5073679;27;45563;-57
2022/09/26 09:42:26;;;;;;;;;1.00;1.00;;;;;16.53;50.05;99913.66;5058080;28;45431;-57
2022/09/26 09:44:58;;;;;;;;;3.00;2.00;;;;;16.46;49.35;99904.50;5058427;28;45433;-57
2022/09/26 09:47:27;;;;;;;;;1.00;1.00;;;;;16.39;49.76;99883.72;5055419;28;45329;-59
2022/09/26 09:49:53;;;;;;;;;1.00;1.00;;;;;16.34;50.21;99888.66;5073634;28;45372;-58
2022/09/26 09:52:46;;;;;;;;;1.00;1.00;;;;;16.40;50.05;99891.63;5057844;28;46307;-57
2022/09/26 09:55:31;;;;;;;;;1.00;1.00;;;;;16.50;49.59;99884.41;5058065;28;45378;-56
2022/09/26 09:58:19;;;;;;;;;1.33;0.33;;;;;16.57;49.99;99881.19;5057735;28;45477;-57
2022/09/26 10:00:55;;;;;;;;;3.67;2.00;;;;;16.64;50.08;99877.78;5058297;28;45377;-57
2022/09/26 10:03:30;;;;;;;;;3.33;2.00;;;;;16.71;49.36;99878.09;5057608;28;45951;-57
2022/09/26 10:05:59;;;;;;;;;2.00;1.00;;;;;16.61;49.62;99861.13;5057542;28;45185;-55
2022/09/26 10:08:41;;;;;;;;;3.00;2.00;;;;;16.68;49.45;99868.50;5057689;28;45209;-57
2022/09/26 10:11:12;;;;;;;;;1.33;1.00;;;;;16.67;49.62;99855.19;5056902;28;45959;-58
2022/09/26 10:13:41;;;;;;;;;1.00;1.00;;;;;16.62;49.70;99852.91;5057871;28;45548;-57
2022/09/26 10:16:13;;;;;;;;;2.00;2.00;;;;;16.64;50.33;99863.50;5057712;28;45642;-57
2022/09/26 10:19:09;;;;;;;;;3.67;2.00;;;;;16.56;50.20;99845.44;5072960;28;45427;-58
2022/09/26 10:21:34;;;;;;;;;2.00;2.00;;;;;16.49;50.30;99849.69;5073228;28;45413;-58
2022/09/26 10:24:03;;;;;;;;;1.00;1.00;;;;;16.42;51.33;99830.63;5056913;28;45357;-56
2022/09/26 10:26:33;;;;;;;;;1.00;1.00;;;;;16.30;51.91;99807.59;5057388;28;45249;-58
2022/09/26 10:29:05;;;;;;;;;1.33;1.33;;;;;16.31;51.67;99801.25;5056289;28;45506;-57
2022/09/26 10:31:39;;;;;;;;;1.00;1.00;;;;;16.28;51.47;99784.59;5072834;28;45578;-56
2022/09/26 10:34:19;;;;;;;;;2.00;2.00;;;;;16.21;51.51;99798.56;5084812;27;46290;-58
2022/09/26 10:36:45;;;;;;;;;2.00;2.00;;;;;16.18;51.74;99790.78;5086449;27;45559;-64
2022/09/26 10:42:20;;;;;;;;;2.33;1.00;;;;;16.31;52.50;99798.56;5077560;28;45175;-59
2022/09/26 10:44:49;;;;;;;;;2.00;2.00;;;;;16.21;52.68;99813.81;5077500;27;46296;-59
2022/09/26 10:47:23;;;;;;;;;1.00;1.00;;;;;16.01;54.22;99793.31;5077943;27;45364;-59
2022/09/26 10:49:57;;;;;;;;;2.00;2.00;;;;;15.97;55.24;99782.03;5077591;27;45306;-57
2022/09/26 10:52:42;;;;;;;;;2.00;2.00;;;;;15.79;56.87;99789.06;5078446;28;45361;-57
2022/09/26 10:55:08;;;;;;;;;2.00;2.00;;;;;15.76;57.65;99784.00;5078980;27;46285;-59
2022/09/26 10:57:48;;;;;;;;;1.67;1.00;;;;;15.66;58.00;99778.59;5077819;27;45458;-57
2022/09/26 11:00:38;;;;;;;;;4.00;2.00;;;;;15.59;58.47;99778.28;5078958;27;44697;-58
2022/09/26 11:03:07;;;;;;;;;2.67;2.00;;;;;15.48;59.92;99766.81;5090538;27;45341;-59
2022/09/26 11:08:20;;;;;;;;;2.00;2.00;;;;;15.25;60.95;99775.09;5082660;27;45461;-57
2022/09/26 11:10:48;;;;;;;;;2.00;2.00;;;;;15.00;65.43;99775.53;5076866;27;45419;-61
2022/09/26 11:13:22;;;;;;;;;2.00;2.00;;;;;14.70;66.64;99779.88;5112560;27;45591;-56
2022/09/26 11:16:07;;;;;;;;;1.00;1.00;;;;;14.39;69.21;99748.66;5096400;27;46188;-56
2022/09/26 11:18:51;;;;;;;;;3.67;3.00;;;;;14.53;68.54;99769.78;5097238;27;45430;-57
2022/09/26 11:21:50;;;;;;;;;2.33;2.33;;;;;14.64;64.56;99760.84;5091798;27;45533;-55
2022/09/26 11:24:23;;;;;;;;;1.00;1.00;;;;;14.63;65.57;99745.75;5097440;27;45411;-55
2022/09/26 11:27:04;;;;;;;;;3.33;2.00;;;;;14.59;66.85;99750.53;5097456;27;45529;-56
2022/09/26 11:29:47;;;;;;;;;2.00;2.00;;;;;14.46;67.42;99749.91;5097117;27;45456;-56
2022/09/26 11:32:21;;;;;;;;;2.00;2.00;;;;;14.31;67.99;99746.63;5097145;27;45529;-58
2022/09/26 11:34:47;;;;;;;;;0.00;0.00;;;;;14.23;67.46;99737.59;5094317;27;45170;-58
2022/09/26 11:37:28;;;;;;;;;5.33;2.00;;;;;14.17;69.18;99739.78;5079036;27;45248;-58
2022/09/26 11:40:11;;;;;;;;;3.00;3.00;;;;;14.16;69.61;99737.25;5072401;27;45452;-59
2022/09/26 11:42:45;;;;;;;;;2.00;1.00;;;;;14.04;71.19;99727.56;5071720;27;45377;-57
2022/09/26 11:45:39;;;;;;;;;2.00;2.00;;;;;13.86;72.99;99700.56;5076771;27;45272;-56
2022/09/26 11:48:30;;;;;;;;;1.67;1.67;;;;;13.74;74.13;99709.63;5086941;27;45326;-59
2022/09/26 11:51:07;;;;;;;;;3.00;3.00;;;;;13.69;74.84;99706.50;5075326;27;45437;-57
2022/09/26 11:53:54;;;;;;;;;2.67;2.67;;;;;13.53;77.95;99693.53;5080841;27;45406;-58
2022/09/26 11:57:13;;;;;;;;;2.67;2.67;;;;;13.41;77.83;99692.75;5071675;28;45405;-56
2022/09/26 11:59:51;;;;;;;;;2.33;2.00;;;;;13.34;79.33;99682.69;5052796;28;47531;-57
2022/09/26 12:02:45;;;;;;;;;2.33;2.33;;;;;13.23;79.85;99678.19;5085084;27;45165;-56
2022/09/26 12:05:24;;;;;;;;;2.00;2.00;;;;;13.19;83.85;99672.28;5076069;28;45227;-59
2022/09/26 12:08:20;;;;;;;;;1.00;1.00;;;;;13.06;83.89;99662.69;5077037;27;45409;-57